sensor_id;sensor_type;location;lat;lon;timestamp;pressure;altitude;pressure_sealevel;temperature;humidity
73821;BME280;62150;43.582;1.456;2023-05-23T05:51:14;100014.75;;;20.06;100.00
73821;BME280;62150;43.582;1.456;2023-05-23T05:53:42;100007.69;;;19.86;100.00
73821;BME280;62150;43.582;1.456;2023-05-23T05:56:10;100008.63;;;19.96;100.00
73821;BME280;62150;43.582;1.456;2023-05-23T05:58:37;100003.88;;;19.90;100.00
73821;BME280;62150;43.582;1.456;2023-05-23T06:01:05;100003.25;;;19.55;100.00
73821;BME280;62150;43.582;1.456;2023-05-23T06:03:32;100007.03;;;19.28;100.00
73821;BME280;62150;43.582;1.456;2023-05-23T06:06:00;100013.00;;;20.39;100.00
73821;BME280;62150;43.582;1.456;2023-05-23T06:08:29;100016.78;;;18.80;100.00
73821;BME280;62150;43.582;1.456;2023-05-23T06:10:56;100010.69;;;19.26;100.00
73821;BME280;62150;43.582;1.456;2023-05-23T06:13:24;100008.22;;;19.24;100.00
73821;BME280;62150;43.582;1.456;2023-05-23T06:15:51;100001.47;;;19.66;100.00
73821;BME280;62150;43.582;1.456;2023-05-23T06:18:19;100002.19;;;19.35;100.00
73821;BME280;62150;43.582;1.456;2023-05-23T06:20:46;100005.16;;;20.07;100.00
73821;BME280;62150;43.582;1.456;2023-05-23T06:23:14;99997.78;;;19.58;100.00
73821;BME280;62150;43.582;1.456;2023-05-23T06:25:43;99995.66;;;19.63;100.00
73821;BME280;62150;43.582;1.456;2023-05-23T06:28:10;100000.69;;;19.98;100.00
73821;BME280;62150;43.582;1.456;2023-05-23T06:30:38;100000.81;;;19.85;100.00
73821;BME280;62150;43.582;1.456;2023-05-23T06:33:05;100000.63;;;18.99;100.00
73821;BME280;62150;43.582;1.456;2023-05-23T06:35:33;100004.22;;;19.97;100.00
73821;BME280;62150;43.582;1.456;2023-05-23T06:38:00;100008.66;;;19.18;100.00
73821;BME280;62150;43.582;1.456;2023-05-23T06:40:29;100006.31;;;20.88;100.00
73821;BME280;62150;43.582;1.456;2023-05-23T06:42:57;99998.88;;;19.55;100.00
73821;BME280;62150;43.582;1.456;2023-05-23T06:45:25;100005.66;;;20.33;100.00
73821;BME280;62150;43.582;1.456;2023-05-23T06:47:52;100003.78;;;20.24;100.00
73821;BME280;62150;43.582;1.456;2023-05-23T06:50:20;100009.38;;;20.19;100.00
73821;BME280;62150;43.582;1.456;2023-05-23T06:52:48;100014.31;;;19.90;100.00
73821;BME280;62150;43.582;1.456;2023-05-23T06:55:16;100016.75;;;19.60;100.00
73821;BME280;62150;43.582;1.456;2023-05-23T06:57:44;100016.75;;;20.46;100.00
73821;BME280;62150;43.582;1.456;2023-05-23T07:00:14;100015.78;;;19.50;100.00
73821;BME280;62150;43.582;1.456;2023-05-23T07:02:42;100027.16;;;19.71;100.00
73821;BME280;62150;43.582;1.456;2023-05-23T07:05:10;100032.31;;;20.68;100.00
73821;BME280;62150;43.582;1.456;2023-05-23T07:07:38;100030.16;;;20.73;100.00
73821;BME280;62150;43.582;1.456;2023-05-23T07:10:07;100027.34;;;20.01;100.00
73821;BME280;62150;43.582;1.456;2023-05-23T07:12:35;100020.41;;;20.12;100.00
73821;BME280;62150;43.582;1.456;2023-05-23T07:15:02;100023.56;;;20.37;100.00
73821;BME280;62150;43.582;1.456;2023-05-23T07:17:31;100020.50;;;20.53;100.00
73821;BME280;62150;43.582;1.456;2023-05-23T07:20:00;100019.44;;;19.81;100.00
73821;BME280;62150;43.582;1.456;2023-05-23T07:22:28;100011.06;;;21.64;100.00
73821;BME280;62150;43.582;1.456;2023-05-23T07:24:55;100014.53;;;21.04;100.00
73821;BME280;62150;43.582;1.456;2023-05-23T07:27:23;100020.72;;;20.82;100.00
73821;BME280;62150;43.582;1.456;2023-05-23T07:29:50;100018.16;;;20.50;100.00
73821;BME280;62150;43.582;1.456;2023-05-23T07:32:18;100022.09;;;20.86;100.00
73821;BME280;62150;43.582;1.456;2023-05-23T07:34:47;100011.72;;;21.47;100.00
73821;BME280;62150;43.582;1.456;2023-05-23T07:37:14;100025.53;;;20.87;100.00
73821;BME280;62150;43.582;1.456;2023-05-23T07:39:42;100034.16;;;20.78;100.00
73821;BME280;62150;43.582;1.456;2023-05-23T07:42:10;100030.59;;;20.58;100.00
73821;BME280;62150;43.582;1.456;2023-05-23T07:44:37;100027.56;;;21.25;100.00
73821;BME280;62150;43.582;1.456;2023-05-23T07:47:05;100039.94;;;20.81;100.00
73821;BME280;62150;43.582;1.456;2023-05-23T07:49:32;100028.72;;;21.72;100.00
73821;BME280;62150;43.582;1.456;2023-05-23T07:52:02;100028.91;;;21.99;100.00
73821;BME280;62150;43.582;1.456;2023-05-23T07:54:29;100015.03;;;22.09;100.00
73821;BME280;62150;43.582;1.456;2023-05-23T07:56:57;100028.38;;;21.46;100.00
73821;BME280;62150;43.582;1.456;2023-05-23T07:59:24;100035.00;;;21.60;100.00
73821;BME280;62150;43.582;1.456;2023-05-23T08:01:52;100030.41;;;21.92;100.00
73821;BME280;62150;43.582;1.456;2023-05-23T08:04:19;100033.16;;;21.20;100.00
73821;BME280;62150;43.582;1.456;2023-05-23T08:06:47;100032.97;;;21.73;100.00
73821;BME280;62150;43.582;1.456;2023-05-23T08:09:16;100035.56;;;21.63;100.00
73821;BME280;62150;43.582;1.456;2023-05-23T08:11:43;100035.78;;;21.51;100.00
73821;BME280;62150;43.582;1.456;2023-05-23T08:14:11;100031.63;;;21.88;100.00
73821;BME280;62150;43.582;1.456;2023-05-23T08:16:38;100030.56;;;22.00;100.00
73821;BME280;62150;43.582;1.456;2023-05-23T08:19:06;100027.22;;;21.79;100.00
73821;BME280;62150;43.582;1.456;2023-05-23T08:21:34;100026.63;;;21.26;100.00
73821;BME280;62150;43.582;1.456;2023-05-23T08:24:02;100024.25;;;22.61;100.00
73821;BME280;62150;43.582;1.456;2023-05-23T08:26:31;100033.09;;;21.31;100.00
73821;BME280;62150;43.582;1.456;2023-05-23T08:29:01;100038.03;;;21.65;100.00
73821;BME280;62150;43.582;1.456;2023-05-23T08:31:28;100040.25;;;22.29;100.00
73821;BME280;62150;43.582;1.456;2023-05-23T08:33:56;100039.56;;;22.56;100.00
73821;BME280;62150;43.582;1.456;2023-05-23T08:36:24;100030.38;;;23.18;100.00
73821;BME280;62150;43.582;1.456;2023-05-23T08:38:52;100040.53;;;22.16;100.00
73821;BME280;62150;43.582;1.456;2023-05-23T08:41:20;100030.00;;;23.03;100.00
73821;BME280;62150;43.582;1.456;2023-05-23T08:43:50;100030.75;;;22.86;100.00
73821;BME280;62150;43.582;1.456;2023-05-23T08:46:18;100026.31;;;22.77;100.00
73821;BME280;62150;43.582;1.456;2023-05-23T08:48:51;100027.72;;;22.23;100.00
73821;BME280;62150;43.582;1.456;2023-05-23T08:51:21;100023.84;;;22.85;100.00
73821;BME280;62150;43.582;1.456;2023-05-23T08:53:49;100027.44;;;22.06;100.00
73821;BME280;62150;43.582;1.456;2023-05-23T08:56:19;100019.81;;;23.37;100.00
73821;BME280;62150;43.582;1.456;2023-05-23T08:58:52;100021.81;;;23.80;100.00
73821;BME280;62150;43.582;1.456;2023-05-23T09:01:20;100018.03;;;22.91;100.00
73821;BME280;62150;43.582;1.456;2023-05-23T09:03:48;100021.59;;;23.36;100.00
73821;BME280;62150;43.582;1.456;2023-05-23T09:06:20;100020.25;;;25.02;100.00
73821;BME280;62150;43.582;1.456;2023-05-23T09:08:50;100022.91;;;24.05;100.00
73821;BME280;62150;43.582;1.456;2023-05-23T09:11:18;100016.59;;;23.43;100.00
73821;BME280;62150;43.582;1.456;2023-05-23T09:13:47;100011.97;;;23.64;100.00
73821;BME280;62150;43.582;1.456;2023-05-23T09:16:17;100016.69;;;24.85;100.00
73821;BME280;62150;43.582;1.456;2023-05-23T09:18:45;100021.81;;;24.43;100.00
73821;BME280;62150;43.582;1.456;2023-05-23T09:21:16;100024.44;;;24.25;100.00
73821;BME280;62150;43.582;1.456;2023-05-23T09:23:45;100018.56;;;24.93;100.00
73821;BME280;62150;43.582;1.456;2023-05-23T09:26:13;100014.06;;;24.42;100.00
73821;BME280;62150;43.582;1.456;2023-05-23T09:28:45;100009.59;;;25.37;100.00
73821;BME280;62150;43.582;1.456;2023-05-23T09:31:13;100017.38;;;24.87;100.00
73821;BME280;62150;43.582;1.456;2023-05-23T09:33:46;100013.25;;;25.45;100.00
73821;BME280;62150;43.582;1.456;2023-05-23T09:36:14;100017.91;;;25.59;100.00
73821;BME280;62150;43.582;1.456;2023-05-23T09:38:43;100017.88;;;25.93;100.00
73821;BME280;62150;43.582;1.456;2023-05-23T09:41:11;100012.97;;;25.98;100.00
73821;BME280;62150;43.582;1.456;2023-05-23T09:43:39;100017.09;;;26.17;100.00
73821;BME280;62150;43.582;1.456;2023-05-23T09:46:10;100009.41;;;25.65;100.00
73821;BME280;62150;43.582;1.456;2023-05-23T09:48:38;100008.41;;;26.65;100.00
73821;BME280;62150;43.582;1.456;2023-05-23T09:51:09;100016.38;;;25.90;100.00
73821;BME280;62150;43.582;1.456;2023-05-23T09:53:36;100012.81;;;26.73;100.00
73821;BME280;62150;43.582;1.456;2023-05-23T09:56:04;100016.47;;;26.55;96.86
73821;BME280;62150;43.582;1.456;2023-05-23T09:58:35;100014.47;;;26.41;100.00
73821;BME280;62150;43.582;1.456;2023-05-23T10:01:03;100015.59;;;26.79;98.75
73821;BME280;62150;43.582;1.456;2023-05-23T10:03:36;100009.41;;;27.35;98.51
73821;BME280;62150;43.582;1.456;2023-05-23T10:06:11;100007.22;;;26.76;100.00
73821;BME280;62150;43.582;1.456;2023-05-23T10:08:42;100013.00;;;26.47;99.61
73821;BME280;62150;43.582;1.456;2023-05-23T10:11:53;99998.22;;;29.38;85.67
73821;BME280;62150;43.582;1.456;2023-05-23T10:14:37;100006.72;;;29.04;79.00
73821;BME280;62150;43.582;1.456;2023-05-23T10:17:12;100014.69;;;28.81;82.26
73821;BME280;62150;43.582;1.456;2023-05-23T10:19:45;100015.47;;;28.52;83.03
73821;BME280;62150;43.582;1.456;2023-05-23T10:22:16;100007.03;;;28.71;82.17
73821;BME280;62150;43.582;1.456;2023-05-23T10:24:45;100009.41;;;28.66;89.23
73821;BME280;62150;43.582;1.456;2023-05-23T10:27:14;100004.22;;;29.97;76.39
73821;BME280;62150;43.582;1.456;2023-05-23T10:29:45;99999.69;;;27.98;85.68
73821;BME280;62150;43.582;1.456;2023-05-23T10:32:16;99992.22;;;28.85;86.27
73821;BME280;62150;43.582;1.456;2023-05-23T10:34:54;99994.53;;;30.04;67.72
73821;BME280;62150;43.582;1.456;2023-05-23T10:37:28;100001.00;;;28.77;75.33
73821;BME280;62150;43.582;1.456;2023-05-23T10:40:02;99996.69;;;29.43;76.11
73821;BME280;62150;43.582;1.456;2023-05-23T10:42:40;99997.56;;;29.86;69.99
73821;BME280;62150;43.582;1.456;2023-05-23T10:45:16;100000.06;;;28.10;88.05
73821;BME280;62150;43.582;1.456;2023-05-23T10:47:45;100008.34;;;29.19;74.75
73821;BME280;62150;43.582;1.456;2023-05-23T10:50:13;100001.22;;;28.76;81.69
73821;BME280;62150;43.582;1.456;2023-05-23T10:52:42;99997.53;;;29.44;71.38
73821;BME280;62150;43.582;1.456;2023-05-23T10:55:14;99997.22;;;29.53;72.45
73821;BME280;62150;43.582;1.456;2023-05-23T10:57:43;99989.19;;;31.03;60.34
73821;BME280;62150;43.582;1.456;2023-05-23T11:00:15;99987.19;;;29.34;71.19
73821;BME280;62150;43.582;1.456;2023-05-23T11:02:53;99991.91;;;27.74;89.66
73821;BME280;62150;43.582;1.456;2023-05-23T11:05:28;99986.56;;;27.59;87.15
73821;BME280;62150;43.582;1.456;2023-05-23T11:08:09;99975.47;;;27.63;93.51
73821;BME280;62150;43.582;1.456;2023-05-23T11:10:53;99984.69;;;27.28;88.16
73821;BME280;62150;43.582;1.456;2023-05-23T11:13:21;99978.28;;;29.06;77.49
73821;BME280;62150;43.582;1.456;2023-05-23T11:15:49;99965.06;;;29.56;69.90
73821;BME280;62150;43.582;1.456;2023-05-23T11:18:21;99965.56;;;30.03;69.59
73821;BME280;62150;43.582;1.456;2023-05-23T11:20:51;99967.78;;;29.63;67.78
73821;BME280;62150;43.582;1.456;2023-05-23T11:23:21;99976.09;;;27.96;85.27
73821;BME280;62150;43.582;1.456;2023-05-23T11:25:50;99973.31;;;26.48;91.81
73821;BME280;62150;43.582;1.456;2023-05-23T11:28:19;99972.84;;;27.55;91.34
73821;BME280;62150;43.582;1.456;2023-05-23T11:30:49;99957.19;;;29.63;72.61
73821;BME280;62150;43.582;1.456;2023-05-23T11:33:17;99953.22;;;29.52;85.07
73821;BME280;62150;43.582;1.456;2023-05-23T11:35:48;99950.69;;;30.85;73.06
73821;BME280;62150;43.582;1.456;2023-05-23T11:38:17;99954.25;;;30.15;70.30
73821;BME280;62150;43.582;1.456;2023-05-23T11:40:46;99952.28;;;29.09;69.77
73821;BME280;62150;43.582;1.456;2023-05-23T11:43:15;99946.28;;;27.65;80.46
73821;BME280;62150;43.582;1.456;2023-05-23T11:45:44;99950.81;;;29.57;64.56
73821;BME280;62150;43.582;1.456;2023-05-23T11:48:13;99948.59;;;28.81;65.84
73821;BME280;62150;43.582;1.456;2023-05-23T11:50:46;99937.09;;;29.68;66.35
73821;BME280;62150;43.582;1.456;2023-05-23T11:53:14;99933.53;;;30.47;57.57
73821;BME280;62150;43.582;1.456;2023-05-23T11:55:52;99926.88;;;30.57;55.28
73821;BME280;62150;43.582;1.456;2023-05-23T11:58:21;99937.75;;;28.61;68.92
73821;BME280;62150;43.582;1.456;2023-05-23T12:00:49;99932.31;;;29.07;67.06
73821;BME280;62150;43.582;1.456;2023-05-23T12:03:16;99924.97;;;29.81;59.83
73821;BME280;62150;43.582;1.456;2023-05-23T12:05:44;99925.69;;;29.17;64.61
73821;BME280;62150;43.582;1.456;2023-05-23T12:08:12;99922.84;;;29.70;58.62
73821;BME280;62150;43.582;1.456;2023-05-23T12:10:51;99915.66;;;29.13;65.37
73821;BME280;62150;43.582;1.456;2023-05-23T12:13:19;99922.38;;;28.42;69.83
73821;BME280;62150;43.582;1.456;2023-05-23T12:15:52;99919.91;;;30.00;69.27
73821;BME280;62150;43.582;1.456;2023-05-23T12:18:20;99908.56;;;29.49;57.60
73821;BME280;62150;43.582;1.456;2023-05-23T12:20:48;99905.53;;;30.10;58.44
73821;BME280;62150;43.582;1.456;2023-05-23T12:23:20;99909.13;;;30.30;56.91
73821;BME280;62150;43.582;1.456;2023-05-23T12:25:51;99891.53;;;30.22;54.75
73821;BME280;62150;43.582;1.456;2023-05-23T12:28:19;99896.00;;;29.73;58.06
73821;BME280;62150;43.582;1.456;2023-05-23T12:30:47;99892.97;;;28.59;64.67
73821;BME280;62150;43.582;1.456;2023-05-23T12:33:14;99888.69;;;29.75;54.79
73821;BME280;62150;43.582;1.456;2023-05-23T12:35:44;99881.66;;;30.65;52.86
73821;BME280;62150;43.582;1.456;2023-05-23T12:38:14;99882.63;;;30.30;49.49
73821;BME280;62150;43.582;1.456;2023-05-23T12:40:43;99892.97;;;28.30;62.12
73821;BME280;62150;43.582;1.456;2023-05-23T12:43:14;99885.00;;;30.46;53.99
73821;BME280;62150;43.582;1.456;2023-05-23T12:45:41;99873.78;;;31.40;54.33
73821;BME280;62150;43.582;1.456;2023-05-23T12:48:09;99873.97;;;30.15;48.63
73821;BME280;62150;43.582;1.456;2023-05-23T12:50:36;99865.97;;;31.25;51.10
73821;BME280;62150;43.582;1.456;2023-05-23T12:53:04;99861.56;;;31.65;47.04
73821;BME280;62150;43.582;1.456;2023-05-23T12:55:31;99858.06;;;31.58;48.28
73821;BME280;62150;43.582;1.456;2023-05-23T12:57:59;99849.97;;;31.05;48.98
73821;BME280;62150;43.582;1.456;2023-05-23T13:00:28;99848.25;;;30.15;55.41
73821;BME280;62150;43.582;1.456;2023-05-23T13:02:55;99851.38;;;31.75;48.34
73821;BME280;62150;43.582;1.456;2023-05-23T13:05:22;99838.13;;;31.01;46.62
73821;BME280;62150;43.582;1.456;2023-05-23T13:07:50;99827.88;;;30.91;47.48
73821;BME280;62150;43.582;1.456;2023-05-23T13:10:18;99825.59;;;30.75;47.51
73821;BME280;62150;43.582;1.456;2023-05-23T13:12:48;99821.88;;;31.24;46.59
73821;BME280;62150;43.582;1.456;2023-05-23T13:15:16;99813.50;;;31.14;45.73
73821;BME280;62150;43.582;1.456;2023-05-23T13:17:45;99803.91;;;32.25;43.79
73821;BME280;62150;43.582;1.456;2023-05-23T13:20:12;99804.06;;;32.94;41.38
73821;BME280;62150;43.582;1.456;2023-05-23T13:22:40;99808.78;;;32.41;41.83
73821;BME280;62150;43.582;1.456;2023-05-23T13:25:08;99798.44;;;33.16;42.18
73821;BME280;62150;43.582;1.456;2023-05-23T13:27:36;99797.56;;;33.53;41.08
73821;BME280;62150;43.582;1.456;2023-05-23T13:30:04;99811.28;;;31.57;43.04
73821;BME280;62150;43.582;1.456;2023-05-23T13:32:32;99806.38;;;32.13;42.92
73821;BME280;62150;43.582;1.456;2023-05-23T13:35:01;99796.88;;;30.98;44.06
73821;BME280;62150;43.582;1.456;2023-05-23T13:37:28;99795.53;;;30.61;45.61
73821;BME280;62150;43.582;1.456;2023-05-23T13:39:56;99793.28;;;29.68;52.80
73821;BME280;62150;43.582;1.456;2023-05-23T13:42:23;99793.31;;;31.59;46.10
73821;BME280;62150;43.582;1.456;2023-05-23T13:44:51;99793.94;;;31.41;45.64
73821;BME280;62150;43.582;1.456;2023-05-23T13:47:18;99787.38;;;31.90;43.88
73821;BME280;62150;43.582;1.456;2023-05-23T13:49:46;99788.88;;;30.38;48.45
73821;BME280;62150;43.582;1.456;2023-05-23T13:52:15;99791.69;;;31.38;44.61
73821;BME280;62150;43.582;1.456;2023-05-23T13:54:43;99783.13;;;31.49;49.40
73821;BME280;62150;43.582;1.456;2023-05-23T13:57:11;99783.88;;;32.29;43.94
73821;BME280;62150;43.582;1.456;2023-05-23T13:59:38;99785.66;;;32.48;44.25
73821;BME280;62150;43.582;1.456;2023-05-23T14:02:06;99783.88;;;32.29;42.70
73821;BME280;62150;43.582;1.456;2023-05-23T14:04:34;99777.47;;;30.78;48.65
73821;BME280;62150;43.582;1.456;2023-05-23T14:07:01;99783.81;;;30.90;46.75
73821;BME280;62150;43.582;1.456;2023-05-23T14:09:30;99773.50;;;31.42;44.17
73821;BME280;62150;43.582;1.456;2023-05-23T14:11:58;99766.97;;;30.57;47.38
73821;BME280;62150;43.582;1.456;2023-05-23T14:14:25;99763.88;;;32.07;46.14
73821;BME280;62150;43.582;1.456;2023-05-23T14:16:53;99755.88;;;34.27;40.76
73821;BME280;62150;43.582;1.456;2023-05-23T14:19:21;99750.06;;;35.08;39.72
73821;BME280;62150;43.582;1.456;2023-05-23T14:21:48;99745.66;;;32.75;41.26
73821;BME280;62150;43.582;1.456;2023-05-23T14:24:16;99750.41;;;31.55;41.27
73821;BME280;62150;43.582;1.456;2023-05-23T14:26:45;99744.91;;;31.37;45.09
73821;BME280;62150;43.582;1.456;2023-05-23T14:29:13;99731.59;;;31.96;43.43
73821;BME280;62150;43.582;1.456;2023-05-23T14:31:40;99733.06;;;31.73;42.91
73821;BME280;62150;43.582;1.456;2023-05-23T14:34:08;99716.47;;;33.92;38.20
73821;BME280;62150;43.582;1.456;2023-05-23T14:36:36;99725.63;;;32.08;41.35
73821;BME280;62150;43.582;1.456;2023-05-23T14:39:04;99732.34;;;30.72;46.68
73821;BME280;62150;43.582;1.456;2023-05-23T14:41:32;99730.41;;;31.26;43.95
73821;BME280;62150;43.582;1.456;2023-05-23T14:44:02;99722.25;;;31.74;41.92
73821;BME280;62150;43.582;1.456;2023-05-23T14:46:30;99712.22;;;31.83;42.05
73821;BME280;62150;43.582;1.456;2023-05-23T14:48:57;99712.03;;;32.42;39.83
73821;BME280;62150;43.582;1.456;2023-05-23T14:51:25;99719.81;;;31.53;42.97
73821;BME280;62150;43.582;1.456;2023-05-23T14:53:52;99722.03;;;31.29;44.24
73821;BME280;62150;43.582;1.456;2023-05-23T14:56:20;99715.47;;;32.49;40.81
73821;BME280;62150;43.582;1.456;2023-05-23T14:58:48;99705.66;;;34.06;38.54
73821;BME280;62150;43.582;1.456;2023-05-23T15:01:17;99705.09;;;31.24;40.43
73821;BME280;62150;43.582;1.456;2023-05-23T15:03:45;99713.91;;;32.80;44.87
73821;BME280;62150;43.582;1.456;2023-05-23T15:06:12;99714.16;;;32.14;43.02
73821;BME280;62150;43.582;1.456;2023-05-23T15:08:42;99706.09;;;31.69;42.12
73821;BME280;62150;43.582;1.456;2023-05-23T15:11:10;99721.34;;;30.88;43.92
73821;BME280;62150;43.582;1.456;2023-05-23T15:13:37;99716.22;;;30.66;43.81
73821;BME280;62150;43.582;1.456;2023-05-23T15:16:05;99713.53;;;29.84;48.16
73821;BME280;62150;43.582;1.456;2023-05-23T15:18:34;99715.50;;;31.25;43.58
73821;BME280;62150;43.582;1.456;2023-05-23T15:21:01;99708.28;;;31.92;45.18
73821;BME280;62150;43.582;1.456;2023-05-23T15:23:29;99712.72;;;29.77;48.01
73821;BME280;62150;43.582;1.456;2023-05-23T15:25:56;99705.91;;;31.38;44.97
73821;BME280;62150;43.582;1.456;2023-05-23T15:28:24;99699.34;;;31.60;43.40
73821;BME280;62150;43.582;1.456;2023-05-23T15:30:51;99708.13;;;32.89;40.95
73821;BME280;62150;43.582;1.456;2023-05-23T15:33:19;99710.25;;;32.23;42.41
73821;BME280;62150;43.582;1.456;2023-05-23T15:35:48;99711.44;;;33.10;41.55
73821;BME280;62150;43.582;1.456;2023-05-23T15:38:16;99716.84;;;32.96;40.72
73821;BME280;62150;43.582;1.456;2023-05-23T15:40:43;99707.94;;;33.41;39.30
73821;BME280;62150;43.582;1.456;2023-05-23T15:43:13;99719.03;;;33.06;43.44
73821;BME280;62150;43.582;1.456;2023-05-23T15:45:41;99721.41;;;32.89;40.64
73821;BME280;62150;43.582;1.456;2023-05-23T15:48:08;99728.88;;;32.68;42.71
73821;BME280;62150;43.582;1.456;2023-05-23T15:50:36;99720.41;;;31.81;43.28
73821;BME280;62150;43.582;1.456;2023-05-23T15:53:05;99730.75;;;30.90;46.03
73821;BME280;62150;43.582;1.456;2023-05-23T15:55:32;99719.94;;;31.91;46.57
73821;BME280;62150;43.582;1.456;2023-05-23T15:58:00;99721.94;;;32.09;46.13
73821;BME280;62150;43.582;1.456;2023-05-23T16:00:28;99718.03;;;32.18;44.84
73821;BME280;62150;43.582;1.456;2023-05-23T16:02:55;99717.94;;;31.73;48.46
73821;BME280;62150;43.582;1.456;2023-05-23T16:05:23;99715.22;;;31.99;47.50
73821;BME280;62150;43.582;1.456;2023-05-23T16:07:50;99725.63;;;30.89;48.23
73821;BME280;62150;43.582;1.456;2023-05-23T16:10:19;99720.84;;;31.19;47.52
73821;BME280;62150;43.582;1.456;2023-05-23T16:12:48;99708.47;;;32.04;45.51
73821;BME280;62150;43.582;1.456;2023-05-23T16:15:16;99722.84;;;30.43;47.06
73821;BME280;62150;43.582;1.456;2023-05-23T16:17:43;99718.84;;;29.84;54.72
73821;BME280;62150;43.582;1.456;2023-05-23T16:20:11;99720.63;;;31.53;49.90
73821;BME280;62150;43.582;1.456;2023-05-23T16:22:39;99722.22;;;31.21;45.35
73821;BME280;62150;43.582;1.456;2023-05-23T16:25:07;99724.72;;;31.16;45.33
73821;BME280;62150;43.582;1.456;2023-05-23T16:27:36;99739.00;;;31.35;44.66
73821;BME280;62150;43.582;1.456;2023-05-23T16:30:06;99740.53;;;30.77;46.96
73821;BME280;62150;43.582;1.456;2023-05-23T16:32:34;99737.00;;;30.22;49.68
73821;BME280;62150;43.582;1.456;2023-05-23T16:35:02;99738.50;;;30.31;48.30
73821;BME280;62150;43.582;1.456;2023-05-23T16:37:30;99740.53;;;30.90;48.15
73821;BME280;62150;43.582;1.456;2023-05-23T16:39:57;99731.56;;;30.91;47.55
73821;BME280;62150;43.582;1.456;2023-05-23T16:42:24;99716.09;;;31.54;46.76
73821;BME280;62150;43.582;1.456;2023-05-23T16:44:54;99714.50;;;32.37;44.40
73821;BME280;62150;43.582;1.456;2023-05-23T16:47:21;99714.13;;;32.78;42.52
73821;BME280;62150;43.582;1.456;2023-05-23T16:49:49;99704.25;;;33.10;41.53
73821;BME280;62150;43.582;1.456;2023-05-23T16:52:16;99704.47;;;32.39;40.67
73821;BME280;62150;43.582;1.456;2023-05-23T16:54:44;99711.22;;;31.31;43.32
73821;BME280;62150;43.582;1.456;2023-05-23T16:57:11;99702.78;;;32.89;40.58
73821;BME280;62150;43.582;1.456;2023-05-23T16:59:39;99690.84;;;33.23;40.38
73821;BME280;62150;43.582;1.456;2023-05-23T17:02:09;99682.88;;;32.60;41.50
73821;BME280;62150;43.582;1.456;2023-05-23T17:04:39;99667.69;;;32.29;43.01
73821;BME280;62150;43.582;1.456;2023-05-23T17:07:07;99666.28;;;32.96;41.82
73821;BME280;62150;43.582;1.456;2023-05-23T17:09:35;99669.06;;;32.45;43.86
73821;BME280;62150;43.582;1.456;2023-05-23T17:12:02;99659.66;;;32.81;42.93
73821;BME280;62150;43.582;1.456;2023-05-23T17:14:30;99665.50;;;32.20;44.48
73821;BME280;62150;43.582;1.456;2023-05-23T17:16:57;99665.47;;;31.49;43.21
73821;BME280;62150;43.582;1.456;2023-05-23T17:19:26;99672.91;;;33.12;40.37
73821;BME280;62150;43.582;1.456;2023-05-23T17:21:54;99683.19;;;32.46;40.44
73821;BME280;62150;43.582;1.456;2023-05-23T17:24:21;99692.63;;;33.05;40.14
73821;BME280;62150;43.582;1.456;2023-05-23T17:26:49;99699.06;;;32.08;41.94
73821;BME280;62150;43.582;1.456;2023-05-23T17:29:16;99692.97;;;32.52;40.60
73821;BME280;62150;43.582;1.456;2023-05-23T17:31:46;99693.16;;;32.57;41.11
73821;BME280;62150;43.582;1.456;2023-05-23T17:34:13;99699.69;;;32.54;42.08
73821;BME280;62150;43.582;1.456;2023-05-23T17:36:42;99695.91;;;32.69;42.14
73821;BME280;62150;43.582;1.456;2023-05-23T17:39:10;99693.38;;;32.49;45.35
73821;BME280;62150;43.582;1.456;2023-05-23T17:41:37;99696.94;;;31.12;49.26
73821;BME280;62150;43.582;1.456;2023-05-23T17:44:05;99691.09;;;32.08;45.21
73821;BME280;62150;43.582;1.456;2023-05-23T17:46:32;99701.78;;;31.55;45.88
73821;BME280;62150;43.582;1.456;2023-05-23T17:49:00;99704.94;;;32.68;44.72
73821;BME280;62150;43.582;1.456;2023-05-23T17:51:28;99701.25;;;32.24;42.81
73821;BME280;62150;43.582;1.456;2023-05-23T17:53:57;99703.69;;;32.77;43.86
73821;BME280;62150;43.582;1.456;2023-05-23T17:56:24;99716.44;;;32.04;46.35
73821;BME280;62150;43.582;1.456;2023-05-23T17:58:52;99717.91;;;31.93;45.41
73821;BME280;62150;43.582;1.456;2023-05-23T18:01:20;99721.44;;;31.14;50.85
73821;BME280;62150;43.582;1.456;2023-05-23T18:03:47;99732.66;;;29.73;60.68
73821;BME280;62150;43.582;1.456;2023-05-23T18:06:15;99732.94;;;29.91;57.45
73821;BME280;62150;43.582;1.456;2023-05-23T18:08:42;99745.41;;;29.63;64.89
73821;BME280;62150;43.582;1.456;2023-05-23T18:11:11;99754.22;;;30.39;60.96
73821;BME280;62150;43.582;1.456;2023-05-23T18:13:39;99762.50;;;30.64;56.13
73821;BME280;62150;43.582;1.456;2023-05-23T18:16:06;99766.41;;;30.27;60.36
73821;BME280;62150;43.582;1.456;2023-05-23T18:18:34;99795.38;;;29.09;63.10
73821;BME280;62150;43.582;1.456;2023-05-23T18:21:02;99804.91;;;27.62;83.05
73821;BME280;62150;43.582;1.456;2023-05-23T18:23:29;99804.38;;;26.51;91.98
73821;BME280;62150;43.582;1.456;2023-05-23T18:25:57;99818.59;;;26.18;96.78
73821;BME280;62150;43.582;1.456;2023-05-23T18:28:26;99817.53;;;26.59;93.67
73821;BME280;62150;43.582;1.456;2023-05-23T18:30:53;99835.19;;;26.43;95.51
73821;BME280;62150;43.582;1.456;2023-05-23T18:33:21;99840.38;;;25.87;97.44
73821;BME280;62150;43.582;1.456;2023-05-23T18:35:52;99843.16;;;25.94;97.39
73821;BME280;62150;43.582;1.456;2023-05-23T18:38:19;99848.72;;;25.66;98.48
73821;BME280;62150;43.582;1.456;2023-05-23T18:40:47;99846.03;;;25.18;100.00
73821;BME280;62150;43.582;1.456;2023-05-23T18:43:14;99851.97;;;25.44;100.00
73821;BME280;62150;43.582;1.456;2023-05-23T18:45:44;99848.63;;;24.76;100.00
73821;BME280;62150;43.582;1.456;2023-05-23T18:48:11;99856.47;;;24.59;100.00
73821;BME280;62150;43.582;1.456;2023-05-23T18:50:39;99865.59;;;25.23;100.00